Terminal Aerodrome Forecast
Issued by NWS

Home | Current Version | Previous Version | Text Only | Print | Product List | Glossary On
Versions: 1 2 3 4 5 6 7 8 9 10 11 12 13 14 15 16 17 18 19 20 21 22 23 24 25 26 27 28 29 30 31 32 33 34 35
000
FTUS46 KOTX 230520
TAFCOE
TAF
KCOE 230520Z 2306/2406 19006KT P6SM SCT120 BKN200
     FM231400 17006KT P6SM BKN100 BKN200
     FM232000 23010G15KT P6SM BKN070 BKN120 PROB30 2320/2324 -SHRA
     FM240300 20007KT P6SM SCT070 BKN120=

USA.gov is the U.S. government's official web portal to all federal, state and local government web resources and services.